sensor_id;sensor_type;location;lat;lon;timestamp;pressure;altitude;pressure_sealevel;temperature;humidity
63493;BME280;49638;47.526;10.028;2023-08-06T00:00:37;91231.63;;;12.36;100.00
63493;BME280;49638;47.526;10.028;2023-08-06T00:03:37;91230.84;;;12.36;100.00
63493;BME280;49638;47.526;10.028;2023-08-06T00:06:38;91226.34;;;12.41;100.00
63493;BME280;49638;47.526;10.028;2023-08-06T00:09:38;91225.28;;;12.47;100.00
63493;BME280;49638;47.526;10.028;2023-08-06T00:12:38;91214.41;;;12.49;100.00
63493;BME280;49638;47.526;10.028;2023-08-06T00:15:38;91211.22;;;12.52;100.00
63493;BME280;49638;47.526;10.028;2023-08-06T00:18:39;91205.94;;;12.52;100.00
63493;BME280;49638;47.526;10.028;2023-08-06T00:21:39;91213.63;;;12.53;100.00
63493;BME280;49638;47.526;10.028;2023-08-06T00:24:40;91216.03;;;12.50;100.00
63493;BME280;49638;47.526;10.028;2023-08-06T00:27:40;91217.84;;;12.49;100.00
63493;BME280;49638;47.526;10.028;2023-08-06T00:30:40;91213.09;;;12.41;100.00
63493;BME280;49638;47.526;10.028;2023-08-06T00:33:40;91211.75;;;12.39;100.00
63493;BME280;49638;47.526;10.028;2023-08-06T00:36:41;91213.06;;;12.46;100.00
63493;BME280;49638;47.526;10.028;2023-08-06T00:39:41;91205.16;;;12.41;100.00
63493;BME280;49638;47.526;10.028;2023-08-06T00:42:41;91208.84;;;12.45;100.00
63493;BME280;49638;47.526;10.028;2023-08-06T00:45:43;91203.28;;;12.47;100.00
63493;BME280;49638;47.526;10.028;2023-08-06T00:48:43;91199.59;;;12.38;100.00
63493;BME280;49638;47.526;10.028;2023-08-06T00:51:43;91211.25;;;12.47;100.00
63493;BME280;49638;47.526;10.028;2023-08-06T00:54:44;91194.53;;;12.41;100.00
63493;BME280;49638;47.526;10.028;2023-08-06T00:57:44;91204.34;;;12.46;100.00
63493;BME280;49638;47.526;10.028;2023-08-06T01:00:44;91205.41;;;12.40;100.00
63493;BME280;49638;47.526;10.028;2023-08-06T01:03:46;91199.59;;;12.38;100.00
63493;BME280;49638;47.526;10.028;2023-08-06T01:07:01;91220.75;;;12.43;100.00
63493;BME280;49638;47.526;10.028;2023-08-06T01:16:23;91215.22;;;12.44;100.00
63493;BME280;49638;47.526;10.028;2023-08-06T01:19:24;91196.66;;;12.39;100.00
63493;BME280;49638;47.526;10.028;2023-08-06T01:22:24;91207.53;;;12.48;100.00
63493;BME280;49638;47.526;10.028;2023-08-06T01:25:30;91210.72;;;12.45;100.00
63493;BME280;49638;47.526;10.028;2023-08-06T01:28:40;91216.00;;;12.45;100.00
63493;BME280;49638;47.526;10.028;2023-08-06T01:31:48;91205.41;;;12.45;100.00
63493;BME280;49638;47.526;10.028;2023-08-06T01:34:49;91185.53;;;12.47;100.00
63493;BME280;49638;47.526;10.028;2023-08-06T01:37:50;91194.81;;;12.45;100.00
63493;BME280;49638;47.526;10.028;2023-08-06T01:40:51;91181.03;;;12.38;100.00
63493;BME280;49638;47.526;10.028;2023-08-06T01:43:51;91199.03;;;12.46;100.00
63493;BME280;49638;47.526;10.028;2023-08-06T01:46:51;91178.91;;;12.40;99.54
63493;BME280;49638;47.526;10.028;2023-08-06T01:49:51;91185.78;;;12.36;99.16
63493;BME280;49638;47.526;10.028;2023-08-06T01:52:52;91186.59;;;12.26;98.92
63493;BME280;49638;47.526;10.028;2023-08-06T01:55:52;91187.94;;;12.23;99.21
63493;BME280;49638;47.526;10.028;2023-08-06T01:58:52;91189.25;;;12.26;99.33
63493;BME280;49638;47.526;10.028;2023-08-06T02:01:52;91181.56;;;12.24;98.99
63493;BME280;49638;47.526;10.028;2023-08-06T02:04:53;91169.63;;;12.22;98.97
63493;BME280;49638;47.526;10.028;2023-08-06T02:07:53;91154.00;;;12.15;99.02
63493;BME280;49638;47.526;10.028;2023-08-06T02:10:53;91153.47;;;12.18;98.72
63493;BME280;49638;47.526;10.028;2023-08-06T02:13:54;91131.25;;;12.14;98.77
63493;BME280;49638;47.526;10.028;2023-08-06T02:16:54;91147.69;;;12.06;98.51
63493;BME280;49638;47.526;10.028;2023-08-06T02:19:54;91151.91;;;12.07;98.63
63493;BME280;49638;47.526;10.028;2023-08-06T02:22:55;91150.31;;;12.01;98.47
63493;BME280;49638;47.526;10.028;2023-08-06T02:26:02;91156.94;;;11.98;98.24
63493;BME280;49638;47.526;10.028;2023-08-06T02:29:03;91156.94;;;11.98;98.52
63493;BME280;49638;47.526;10.028;2023-08-06T02:32:04;91137.63;;;11.93;98.59
63493;BME280;49638;47.526;10.028;2023-08-06T02:35:04;91149.53;;;12.00;98.48
63493;BME280;49638;47.526;10.028;2023-08-06T02:38:05;91141.31;;;12.02;98.74
63493;BME280;49638;47.526;10.028;2023-08-06T02:41:05;91146.09;;;12.00;98.18
63493;BME280;49638;47.526;10.028;2023-08-06T02:44:05;91146.88;;;12.00;98.16
63493;BME280;49638;47.526;10.028;2023-08-06T02:47:05;91141.06;;;11.93;98.43
63493;BME280;49638;47.526;10.028;2023-08-06T02:50:06;91138.13;;;11.95;98.18
63493;BME280;49638;47.526;10.028;2023-08-06T02:53:07;91132.59;;;11.96;98.13
63493;BME280;49638;47.526;10.028;2023-08-06T02:56:08;91119.59;;;11.95;98.23
63493;BME280;49638;47.526;10.028;2023-08-06T02:59:08;91124.63;;;11.96;97.86
63493;BME280;49638;47.526;10.028;2023-08-06T03:02:08;91123.03;;;11.95;97.89
63493;BME280;49638;47.526;10.028;2023-08-06T03:05:08;91111.66;;;11.90;98.01
63493;BME280;49638;47.526;10.028;2023-08-06T03:08:09;91118.56;;;11.96;97.63
63493;BME280;49638;47.526;10.028;2023-08-06T03:11:09;91120.66;;;11.94;97.81
63493;BME280;49638;47.526;10.028;2023-08-06T03:14:09;91113.00;;;11.92;97.69
63493;BME280;49638;47.526;10.028;2023-08-06T03:17:09;91120.13;;;11.92;97.03
63493;BME280;49638;47.526;10.028;2023-08-06T03:20:10;91112.47;;;11.90;96.68
63493;BME280;49638;47.526;10.028;2023-08-06T03:23:10;91089.13;;;11.82;96.53
63493;BME280;49638;47.526;10.028;2023-08-06T03:26:30;91092.88;;;11.86;96.18
63493;BME280;49638;47.526;10.028;2023-08-06T03:29:31;91088.63;;;11.85;95.86
63493;BME280;49638;47.526;10.028;2023-08-06T03:32:31;91082.53;;;11.79;95.48
63493;BME280;49638;47.526;10.028;2023-08-06T03:35:31;91084.09;;;11.80;95.82
63493;BME280;49638;47.526;10.028;2023-08-06T03:38:31;91096.00;;;11.78;95.64
63493;BME280;49638;47.526;10.028;2023-08-06T03:41:32;91107.13;;;11.75;95.72
63493;BME280;49638;47.526;10.028;2023-08-06T03:44:32;91096.25;;;11.71;95.78
63493;BME280;49638;47.526;10.028;2023-08-06T03:47:32;91096.25;;;11.71;94.86
63493;BME280;49638;47.526;10.028;2023-08-06T03:50:33;91097.88;;;11.72;94.37
63493;BME280;49638;47.526;10.028;2023-08-06T03:53:33;91089.13;;;11.67;93.58
63493;BME280;49638;47.526;10.028;2023-08-06T03:56:34;91109.78;;;11.70;93.93
63493;BME280;49638;47.526;10.028;2023-08-06T03:59:34;91095.47;;;11.71;93.54
63493;BME280;49638;47.526;10.028;2023-08-06T04:02:34;91098.38;;;11.74;93.16
63493;BME280;49638;47.526;10.028;2023-08-06T04:05:35;91096.00;;;11.68;93.32
63493;BME280;49638;47.526;10.028;2023-08-06T04:08:35;91099.97;;;11.70;93.22
63493;BME280;49638;47.526;10.028;2023-08-06T04:11:35;91105.81;;;11.67;93.07
63493;BME280;49638;47.526;10.028;2023-08-06T04:14:35;91095.50;;;11.66;93.24
63493;BME280;49638;47.526;10.028;2023-08-06T04:17:36;91083.56;;;11.63;93.24
63493;BME280;49638;47.526;10.028;2023-08-06T04:20:46;91097.88;;;11.72;91.72
63493;BME280;49638;47.526;10.028;2023-08-06T04:23:49;91088.59;;;11.75;92.85
63493;BME280;49638;47.526;10.028;2023-08-06T04:26:49;91085.16;;;11.74;92.46
63493;BME280;49638;47.526;10.028;2023-08-06T04:29:49;91075.63;;;11.73;92.44
63493;BME280;49638;47.526;10.028;2023-08-06T04:32:50;91090.72;;;11.83;92.71
63493;BME280;49638;47.526;10.028;2023-08-06T04:35:54;91088.88;;;11.89;92.00
63493;BME280;49638;47.526;10.028;2023-08-06T04:38:55;91084.66;;;11.93;92.12
63493;BME280;49638;47.526;10.028;2023-08-06T04:41:56;91086.78;;;11.96;91.86
63493;BME280;49638;47.526;10.028;2023-08-06T04:45:01;91088.34;;;12.02;91.29
63493;BME280;49638;47.526;10.028;2023-08-06T04:48:01;91095.47;;;12.12;91.63
63493;BME280;49638;47.526;10.028;2023-08-06T04:51:02;91088.03;;;12.34;90.95
63493;BME280;49638;47.526;10.028;2023-08-06T04:54:02;91092.78;;;12.47;90.98
63493;BME280;49638;47.526;10.028;2023-08-06T04:57:02;91091.38;;;12.65;90.54
63493;BME280;49638;47.526;10.028;2023-08-06T05:00:03;91096.56;;;13.01;88.95
63493;BME280;49638;47.526;10.028;2023-08-06T05:03:05;91104.59;;;13.40;89.00
63493;BME280;49638;47.526;10.028;2023-08-06T05:06:05;91113.38;;;13.36;88.63
63493;BME280;49638;47.526;10.028;2023-08-06T05:09:06;91110.22;;;13.23;88.61
63493;BME280;49638;47.526;10.028;2023-08-06T05:12:06;91107.38;;;13.10;88.76
63493;BME280;49638;47.526;10.028;2023-08-06T05:15:07;91092.09;;;12.91;88.86
63493;BME280;49638;47.526;10.028;2023-08-06T05:18:08;91107.19;;;12.96;88.91
63493;BME280;49638;47.526;10.028;2023-08-06T05:21:08;91105.88;;;12.88;88.74
63493;BME280;49638;47.526;10.028;2023-08-06T05:24:09;91102.75;;;12.81;88.15
63493;BME280;49638;47.526;10.028;2023-08-06T05:27:09;91098.25;;;12.71;88.35
63493;BME280;49638;47.526;10.028;2023-08-06T05:30:10;91095.91;;;12.65;87.86
63493;BME280;49638;47.526;10.028;2023-08-06T05:33:10;91100.63;;;12.73;87.85
63493;BME280;49638;47.526;10.028;2023-08-06T05:36:10;91107.78;;;12.77;88.30
63493;BME280;49638;47.526;10.028;2023-08-06T05:39:11;91108.59;;;12.78;88.34
63493;BME280;49638;47.526;10.028;2023-08-06T05:42:11;91094.00;;;12.75;88.34
63493;BME280;49638;47.526;10.028;2023-08-06T05:45:11;91103.78;;;12.80;88.45
63493;BME280;49638;47.526;10.028;2023-08-06T05:48:12;91095.81;;;12.85;88.38
63493;BME280;49638;47.526;10.028;2023-08-06T05:51:12;91090.03;;;12.78;88.40
63493;BME280;49638;47.526;10.028;2023-08-06T05:54:13;91089.47;;;12.76;88.08
63493;BME280;49638;47.526;10.028;2023-08-06T05:57:13;91072.00;;;12.75;87.73
63493;BME280;49638;47.526;10.028;2023-08-06T06:00:14;91096.13;;;12.78;87.82
63493;BME280;49638;47.526;10.028;2023-08-06T06:03:14;91105.13;;;12.77;87.97
63493;BME280;49638;47.526;10.028;2023-08-06T06:06:14;91140.16;;;12.74;88.38
63493;BME280;49638;47.526;10.028;2023-08-06T06:09:14;91130.91;;;12.62;89.19
63493;BME280;49638;47.526;10.028;2023-08-06T06:12:15;91150.28;;;12.47;90.06
63493;BME280;49638;47.526;10.028;2023-08-06T06:15:15;91150.31;;;12.37;90.75
63493;BME280;49638;47.526;10.028;2023-08-06T06:18:15;91145.28;;;12.25;91.06
63493;BME280;49638;47.526;10.028;2023-08-06T06:21:16;91163.03;;;12.14;91.41
63493;BME280;49638;47.526;10.028;2023-08-06T06:24:16;91155.63;;;11.91;91.87
63493;BME280;49638;47.526;10.028;2023-08-06T06:27:16;91148.69;;;11.79;92.37
63493;BME280;49638;47.526;10.028;2023-08-06T06:30:17;91154.78;;;11.75;92.75
63493;BME280;49638;47.526;10.028;2023-08-06T06:33:17;91161.41;;;11.77;93.30
63493;BME280;49638;47.526;10.028;2023-08-06T06:36:17;91168.81;;;11.70;93.66
63493;BME280;49638;47.526;10.028;2023-08-06T06:39:18;91159.81;;;11.66;94.05
63493;BME280;49638;47.526;10.028;2023-08-06T06:42:18;91183.91;;;11.70;93.87
63493;BME280;49638;47.526;10.028;2023-08-06T06:45:18;91178.06;;;11.63;94.20
63493;BME280;49638;47.526;10.028;2023-08-06T06:48:19;91187.59;;;11.58;94.23
63493;BME280;49638;47.526;10.028;2023-08-06T06:51:19;91190.25;;;11.58;94.51
63493;BME280;49638;47.526;10.028;2023-08-06T06:54:19;91198.69;;;11.55;94.50
63493;BME280;49638;47.526;10.028;2023-08-06T06:57:19;91208.50;;;11.55;94.45
63493;BME280;49638;47.526;10.028;2023-08-06T07:00:20;91206.09;;;11.53;94.65
63493;BME280;49638;47.526;10.028;2023-08-06T07:03:20;91195.50;;;11.53;94.80
63493;BME280;49638;47.526;10.028;2023-08-06T07:06:20;91197.94;;;11.65;95.02
63493;BME280;49638;47.526;10.028;2023-08-06T07:09:20;91187.34;;;11.65;94.91
63493;BME280;49638;47.526;10.028;2023-08-06T07:12:21;91191.03;;;11.64;94.84
63493;BME280;49638;47.526;10.028;2023-08-06T07:15:22;91205.59;;;11.77;94.55
63493;BME280;49638;47.526;10.028;2023-08-06T07:18:22;91201.63;;;11.69;94.97
63493;BME280;49638;47.526;10.028;2023-08-06T07:21:22;91199.00;;;11.69;95.11
63493;BME280;49638;47.526;10.028;2023-08-06T07:24:23;91209.31;;;11.71;94.85
63493;BME280;49638;47.526;10.028;2023-08-06T07:27:24;91201.34;;;11.71;95.02
63493;BME280;49638;47.526;10.028;2023-08-06T07:30:25;91212.22;;;11.74;94.81
63493;BME280;49638;47.526;10.028;2023-08-06T07:33:25;91198.22;;;11.79;94.92
63493;BME280;49638;47.526;10.028;2023-08-06T07:36:25;91212.75;;;11.81;94.98
63493;BME280;49638;47.526;10.028;2023-08-06T07:39:26;91215.19;;;11.93;94.45
63493;BME280;49638;47.526;10.028;2023-08-06T07:42:28;91213.34;;;12.09;94.51
63493;BME280;49638;47.526;10.028;2023-08-06T07:45:32;91205.69;;;12.28;94.60
63493;BME280;49638;47.526;10.028;2023-08-06T07:48:33;91217.34;;;12.47;94.48
63493;BME280;49638;47.526;10.028;2023-08-06T07:51:33;91215.47;;;12.43;93.64
63493;BME280;49638;47.526;10.028;2023-08-06T07:54:33;91218.38;;;12.57;94.05
63493;BME280;49638;47.526;10.028;2023-08-06T07:57:34;91195.06;;;12.64;93.38
63493;BME280;49638;47.526;10.028;2023-08-06T08:00:34;91220.72;;;12.89;93.81
63493;BME280;49638;47.526;10.028;2023-08-06T08:03:34;91223.38;;;12.84;93.25
63493;BME280;49638;47.526;10.028;2023-08-06T08:06:35;91219.16;;;12.77;93.39
63493;BME280;49638;47.526;10.028;2023-08-06T08:09:35;91215.47;;;12.68;93.17
63493;BME280;49638;47.526;10.028;2023-08-06T08:12:36;91213.88;;;12.62;93.11
63493;BME280;49638;47.526;10.028;2023-08-06T08:15:36;91199.56;;;12.43;92.93
63493;BME280;49638;47.526;10.028;2023-08-06T08:18:36;91209.66;;;12.51;93.12
63493;BME280;49638;47.526;10.028;2023-08-06T08:21:37;91210.44;;;12.41;92.69
63493;BME280;49638;47.526;10.028;2023-08-06T08:24:37;91204.09;;;12.37;92.89
63493;BME280;49638;47.526;10.028;2023-08-06T08:27:37;91191.88;;;12.26;92.69
63493;BME280;49638;47.526;10.028;2023-08-06T08:30:40;91196.94;;;12.22;92.60
63493;BME280;49638;47.526;10.028;2023-08-06T08:33:40;91214.16;;;12.20;92.94
63493;BME280;49638;47.526;10.028;2023-08-06T08:36:41;91200.38;;;12.07;93.35
63493;BME280;49638;47.526;10.028;2023-08-06T08:39:41;91220.25;;;12.10;93.32
63493;BME280;49638;47.526;10.028;2023-08-06T08:42:42;91205.94;;;12.06;93.85
63493;BME280;49638;47.526;10.028;2023-08-06T08:45:43;91217.84;;;11.98;93.57
63493;BME280;49638;47.526;10.028;2023-08-06T08:48:45;91208.59;;;11.96;93.86
63493;BME280;49638;47.526;10.028;2023-08-06T08:51:46;91205.38;;;11.99;94.01
63493;BME280;49638;47.526;10.028;2023-08-06T08:54:47;91219.44;;;11.99;94.19
63493;BME280;49638;47.526;10.028;2023-08-06T08:57:51;91228.97;;;12.05;94.62
63493;BME280;49638;47.526;10.028;2023-08-06T09:00:52;91214.41;;;12.03;94.76
63493;BME280;49638;47.526;10.028;2023-08-06T09:03:53;91226.88;;;12.02;94.92
63493;BME280;49638;47.526;10.028;2023-08-06T09:06:56;91248.84;;;11.98;94.97
63493;BME280;49638;47.526;10.028;2023-08-06T09:09:59;91232.13;;;11.87;95.13
63493;BME280;49638;47.526;10.028;2023-08-06T09:13:01;91241.16;;;11.86;95.30
63493;BME280;49638;47.526;10.028;2023-08-06T09:16:04;91258.09;;;11.90;95.49
63493;BME280;49638;47.526;10.028;2023-08-06T09:19:13;91258.31;;;11.83;95.98
63493;BME280;49638;47.526;10.028;2023-08-06T09:22:17;91259.63;;;11.76;95.97
63493;BME280;49638;47.526;10.028;2023-08-06T09:25:24;91267.03;;;11.79;96.40
63493;BME280;49638;47.526;10.028;2023-08-06T09:28:37;91284.25;;;11.76;96.18
63493;BME280;49638;47.526;10.028;2023-08-06T09:31:42;91282.91;;;11.74;96.42
63493;BME280;49638;47.526;10.028;2023-08-06T09:34:43;91261.97;;;11.67;96.11
63493;BME280;49638;47.526;10.028;2023-08-06T09:37:43;91283.41;;;11.71;96.02
63493;BME280;49638;47.526;10.028;2023-08-06T09:40:44;91282.59;;;11.60;96.42
63493;BME280;49638;47.526;10.028;2023-08-06T09:43:44;91284.13;;;11.51;96.90
63493;BME280;49638;47.526;10.028;2023-08-06T09:46:52;91286.53;;;11.52;96.63
63493;BME280;49638;47.526;10.028;2023-08-06T09:49:52;91289.94;;;11.48;96.53
63493;BME280;49638;47.526;10.028;2023-08-06T09:52:52;91287.56;;;11.46;96.56
63493;BME280;49638;47.526;10.028;2023-08-06T09:55:53;91294.97;;;11.44;96.63
63493;BME280;49638;47.526;10.028;2023-08-06T09:58:55;91292.88;;;11.46;96.53
63493;BME280;49638;47.526;10.028;2023-08-06T10:01:56;91293.94;;;11.50;96.57
63493;BME280;49638;47.526;10.028;2023-08-06T10:04:57;91296.81;;;11.44;96.70
63493;BME280;49638;47.526;10.028;2023-08-06T10:07:59;91296.03;;;11.43;96.26
63493;BME280;49638;47.526;10.028;2023-08-06T10:11:02;91290.97;;;11.36;96.31
63493;BME280;49638;47.526;10.028;2023-08-06T10:14:11;91294.16;;;11.39;96.42
63493;BME280;49638;47.526;10.028;2023-08-06T10:17:11;91303.19;;;11.48;95.96
63493;BME280;49638;47.526;10.028;2023-08-06T10:20:12;91300.75;;;11.41;95.09
63493;BME280;49638;47.526;10.028;2023-08-06T10:23:12;91303.69;;;11.40;95.28
63493;BME280;49638;47.526;10.028;2023-08-06T10:26:16;91279.81;;;11.24;95.42
63493;BME280;49638;47.526;10.028;2023-08-06T10:29:35;91305.00;;;11.37;95.41
63493;BME280;49638;47.526;10.028;2023-08-06T10:32:50;91293.09;;;11.34;95.05
63493;BME280;49638;47.526;10.028;2023-08-06T10:35:50;91311.34;;;11.36;95.46
63493;BME280;49638;47.526;10.028;2023-08-06T10:38:57;91305.25;;;11.41;95.21
63493;BME280;49638;47.526;10.028;2023-08-06T10:41:57;91307.41;;;11.44;95.48
63493;BME280;49638;47.526;10.028;2023-08-06T10:45:17;91308.75;;;11.46;94.75
63493;BME280;49638;47.526;10.028;2023-08-06T10:48:53;91321.97;;;11.46;95.62
63493;BME280;49638;47.526;10.028;2023-08-06T10:51:54;91298.13;;;11.36;95.37
63493;BME280;49638;47.526;10.028;2023-08-06T10:54:55;91319.81;;;11.38;95.47
63493;BME280;49638;47.526;10.028;2023-08-06T10:57:55;91304.19;;;11.31;95.61
63493;BME280;49638;47.526;10.028;2023-08-06T11:00:56;91313.16;;;11.30;95.52
63493;BME280;49638;47.526;10.028;2023-08-06T11:04:01;91300.97;;;11.24;96.16
63493;BME280;49638;47.526;10.028;2023-08-06T11:07:02;91305.22;;;11.30;96.51
63493;BME280;49638;47.526;10.028;2023-08-06T11:10:09;91321.69;;;11.43;96.16
63493;BME280;49638;47.526;10.028;2023-08-06T11:13:10;91334.94;;;11.48;96.26
63493;BME280;49638;47.526;10.028;2023-08-06T11:16:10;91322.53;;;11.53;96.18
63493;BME280;49638;47.526;10.028;2023-08-06T11:19:10;91321.75;;;11.53;96.45
63493;BME280;49638;47.526;10.028;2023-08-06T11:22:11;91328.13;;;11.62;96.40
63493;BME280;49638;47.526;10.028;2023-08-06T11:25:11;91322.56;;;11.64;96.11
63493;BME280;49638;47.526;10.028;2023-08-06T11:28:12;91330.81;;;11.72;96.24
63493;BME280;49638;47.526;10.028;2023-08-06T11:31:20;91319.47;;;11.82;96.77
63493;BME280;49638;47.526;10.028;2023-08-06T11:34:20;91313.91;;;11.83;96.61
63493;BME280;49638;47.526;10.028;2023-08-06T11:37:21;91326.59;;;11.81;96.18
63493;BME280;49638;47.526;10.028;2023-08-06T11:40:23;91333.47;;;11.77;97.04
63493;BME280;49638;47.526;10.028;2023-08-06T11:43:23;91346.47;;;11.79;96.91
63493;BME280;49638;47.526;10.028;2023-08-06T11:46:23;91326.06;;;11.74;96.80
63493;BME280;49638;47.526;10.028;2023-08-06T11:49:47;91335.69;;;11.86;95.82
63493;BME280;49638;47.526;10.028;2023-08-06T11:52:47;91330.91;;;11.88;96.37
63493;BME280;49638;47.526;10.028;2023-08-06T11:55:48;91331.97;;;11.87;96.29
63493;BME280;49638;47.526;10.028;2023-08-06T11:58:49;91320.50;;;11.81;96.16
63493;BME280;49638;47.526;10.028;2023-08-06T12:01:49;91345.44;;;11.85;96.20
63493;BME280;49638;47.526;10.028;2023-08-06T12:05:02;91342.25;;;11.83;96.17
63493;BME280;49638;47.526;10.028;2023-08-06T12:08:04;91349.09;;;11.74;96.83
63493;BME280;49638;47.526;10.028;2023-08-06T12:11:04;91351.19;;;11.72;96.46
63493;BME280;49638;47.526;10.028;2023-08-06T12:14:05;91351.72;;;11.74;96.23
63493;BME280;49638;47.526;10.028;2023-08-06T12:17:05;91359.94;;;11.72;96.68
63493;BME280;49638;47.526;10.028;2023-08-06T12:20:06;91358.84;;;11.68;96.83
63493;BME280;49638;47.526;10.028;2023-08-06T12:23:07;91354.63;;;11.67;96.89
63493;BME280;49638;47.526;10.028;2023-08-06T12:26:08;91364.69;;;11.65;97.00
63493;BME280;49638;47.526;10.028;2023-08-06T12:29:08;91364.66;;;11.60;96.92
63493;BME280;49638;47.526;10.028;2023-08-06T12:32:09;91353.19;;;11.44;96.93
63493;BME280;49638;47.526;10.028;2023-08-06T12:35:10;91349.72;;;11.39;96.73
63493;BME280;49638;47.526;10.028;2023-08-06T12:38:10;91336.50;;;11.39;96.97
63493;BME280;49638;47.526;10.028;2023-08-06T12:41:10;91354.50;;;11.42;96.91
63493;BME280;49638;47.526;10.028;2023-08-06T12:44:10;91372.81;;;11.48;97.12
63493;BME280;49638;47.526;10.028;2023-08-06T12:47:11;91364.59;;;11.45;97.34
63493;BME280;49638;47.526;10.028;2023-08-06T12:50:11;91373.03;;;11.42;97.13
63493;BME280;49638;47.526;10.028;2023-08-06T12:53:11;91356.59;;;11.40;97.00
63493;BME280;49638;47.526;10.028;2023-08-06T12:56:11;91375.13;;;11.40;96.73
63493;BME280;49638;47.526;10.028;2023-08-06T12:59:14;91369.84;;;11.40;96.67
63493;BME280;49638;47.526;10.028;2023-08-06T13:02:14;91382.84;;;11.46;96.63
63493;BME280;49638;47.526;10.028;2023-08-06T13:05:14;91367.50;;;11.48;96.93
63493;BME280;49638;47.526;10.028;2023-08-06T13:08:15;91368.59;;;11.52;97.00
63493;BME280;49638;47.526;10.028;2023-08-06T13:11:15;91365.91;;;11.47;96.88
63493;BME280;49638;47.526;10.028;2023-08-06T13:14:15;91370.38;;;11.42;96.90
63493;BME280;49638;47.526;10.028;2023-08-06T13:17:15;91376.19;;;11.39;97.19
63493;BME280;49638;47.526;10.028;2023-08-06T13:20:16;91381.78;;;11.47;96.94
63493;BME280;49638;47.526;10.028;2023-08-06T13:23:16;91369.88;;;11.50;96.50
63493;BME280;49638;47.526;10.028;2023-08-06T13:26:17;91375.19;;;11.50;96.84
63493;BME280;49638;47.526;10.028;2023-08-06T13:29:17;91370.16;;;11.53;97.09
63493;BME280;49638;47.526;10.028;2023-08-06T13:32:18;91371.00;;;11.59;96.94
63493;BME280;49638;47.526;10.028;2023-08-06T13:35:18;91371.25;;;11.57;97.00
63493;BME280;49638;47.526;10.028;2023-08-06T13:38:18;91380.31;;;11.72;97.10
63493;BME280;49638;47.526;10.028;2023-08-06T13:41:19;91371.63;;;11.81;97.00
63493;BME280;49638;47.526;10.028;2023-08-06T13:44:19;91376.44;;;11.84;97.11
63493;BME280;49638;47.526;10.028;2023-08-06T13:47:19;91369.75;;;11.77;96.61
63493;BME280;49638;47.526;10.028;2023-08-06T13:50:20;91376.34;;;11.69;96.87
63493;BME280;49638;47.526;10.028;2023-08-06T13:53:22;91379.00;;;11.74;97.11
63493;BME280;49638;47.526;10.028;2023-08-06T13:56:22;91383.78;;;11.72;96.88
63493;BME280;49638;47.526;10.028;2023-08-06T13:59:22;91381.09;;;11.67;96.66
63493;BME280;49638;47.526;10.028;2023-08-06T14:02:24;91375.78;;;11.67;97.04
63493;BME280;49638;47.526;10.028;2023-08-06T14:05:25;91375.00;;;11.72;96.90
63493;BME280;49638;47.526;10.028;2023-08-06T14:08:25;91377.38;;;11.68;96.70
63493;BME280;49638;47.526;10.028;2023-08-06T14:11:26;91387.22;;;11.73;96.87
63493;BME280;49638;47.526;10.028;2023-08-06T14:14:26;91374.22;;;11.71;96.62
63493;BME280;49638;47.526;10.028;2023-08-06T14:17:27;91394.38;;;11.72;96.99
63493;BME280;49638;47.526;10.028;2023-08-06T14:20:27;91402.59;;;11.76;96.82
63493;BME280;49638;47.526;10.028;2023-08-06T14:23:27;91407.03;;;11.70;97.25
63493;BME280;49638;47.526;10.028;2023-08-06T14:26:28;91420.00;;;11.67;97.63
63493;BME280;49638;47.526;10.028;2023-08-06T14:29:28;91422.59;;;11.61;97.44
63493;BME280;49638;47.526;10.028;2023-08-06T14:32:28;91433.97;;;11.57;97.46
63493;BME280;49638;47.526;10.028;2023-08-06T14:35:29;91421.28;;;11.59;97.56
63493;BME280;49638;47.526;10.028;2023-08-06T14:38:29;91420.28;;;11.65;97.74
63493;BME280;49638;47.526;10.028;2023-08-06T14:41:29;91412.63;;;11.69;97.72
63493;BME280;49638;47.526;10.028;2023-08-06T14:44:30;91421.34;;;11.69;97.78
63493;BME280;49638;47.526;10.028;2023-08-06T14:47:30;91424.22;;;11.68;98.07
63493;BME280;49638;47.526;10.028;2023-08-06T14:50:30;91422.13;;;11.70;97.57
63493;BME280;49638;47.526;10.028;2023-08-06T14:53:31;91425.00;;;11.63;97.61
63493;BME280;49638;47.526;10.028;2023-08-06T14:56:31;91436.66;;;11.62;97.73
63493;BME280;49638;47.526;10.028;2023-08-06T14:59:31;91439.81;;;11.59;97.38
63493;BME280;49638;47.526;10.028;2023-08-06T15:02:32;91418.88;;;11.57;97.32
63493;BME280;49638;47.526;10.028;2023-08-06T15:05:33;91439.31;;;11.62;97.52
63493;BME280;49638;47.526;10.028;2023-08-06T15:08:33;91439.03;;;11.58;97.83
63493;BME280;49638;47.526;10.028;2023-08-06T15:11:33;91488.97;;;11.50;97.44
63493;BME280;49638;47.526;10.028;2023-08-06T15:14:33;91490.25;;;11.42;98.15
63493;BME280;49638;47.526;10.028;2023-08-06T15:17:34;91478.59;;;11.38;97.95
63493;BME280;49638;47.526;10.028;2023-08-06T15:20:34;91479.09;;;11.35;97.94
63493;BME280;49638;47.526;10.028;2023-08-06T15:23:34;91480.38;;;11.32;97.56
63493;BME280;49638;47.526;10.028;2023-08-06T15:26:35;91490.75;;;11.39;97.65
63493;BME280;49638;47.526;10.028;2023-08-06T15:29:35;91486.25;;;11.40;98.01
63493;BME280;49638;47.526;10.028;2023-08-06T15:32:35;91504.50;;;11.41;97.97
63493;BME280;49638;47.526;10.028;2023-08-06T15:35:36;91503.22;;;11.44;97.75
63493;BME280;49638;47.526;10.028;2023-08-06T15:38:36;91499.28;;;11.46;97.65
63493;BME280;49638;47.526;10.028;2023-08-06T15:41:36;91514.38;;;11.51;97.70
63493;BME280;49638;47.526;10.028;2023-08-06T15:44:36;91505.13;;;11.53;97.47
63493;BME280;49638;47.526;10.028;2023-08-06T15:47:37;91496.69;;;11.56;97.24
63493;BME280;49638;47.526;10.028;2023-08-06T15:50:40;91502.84;;;11.67;97.06